createdAt,value
2019-04-19T00:01:49.216Z,102135.56
2019-04-19T00:04:16.454Z,102130.91
2019-04-19T00:06:45.984Z,102133.40
2019-04-19T00:09:28.398Z,102133.61
2019-04-19T00:11:52.331Z,102132.80
2019-04-19T00:14:13.321Z,102126.38
2019-04-19T00:16:42.699Z,102130.63
2019-04-19T00:19:30.592Z,102130.93
2019-04-19T00:22:03.547Z,102128.28
2019-04-19T00:24:12.129Z,102128.52
2019-04-19T00:26:40.628Z,102133.83
2019-04-19T00:29:20.151Z,102128.14
2019-04-19T00:31:47.928Z,102128.91
2019-04-19T00:34:10.414Z,102128.87
2019-04-19T00:36:38.856Z,102126.23
2019-04-19T00:39:24.036Z,102131.14
2019-04-19T00:42:01.554Z,102127.58
2019-04-19T00:44:34.255Z,102126.55
2019-04-19T00:47:02.824Z,102129.98
2019-04-19T00:49:24.065Z,102132.05
2019-04-19T00:52:01.166Z,102132.17
2019-04-19T00:54:22.965Z,102135.04
2019-04-19T00:56:53.152Z,102125.83
2019-04-19T00:59:17.490Z,102122.88
2019-04-19T01:01:46.887Z,102130.94
2019-04-19T01:04:20.615Z,102130.28
2019-04-19T01:06:50.885Z,102128.76
2019-04-19T01:09:29.931Z,102131.13
2019-04-19T01:12:00.334Z,102130.91
2019-04-19T01:14:27.529Z,102132.95
2019-04-19T01:17:02.590Z,102131.97
2019-04-19T01:19:18.204Z,102131.45
2019-04-19T01:21:46.989Z,102132.02
2019-04-19T01:24:17.951Z,102137.65
2019-04-19T01:26:49.476Z,102134.42
2019-04-19T01:29:19.405Z,102135.42
2019-04-19T01:31:49.542Z,102134.75
2019-04-19T01:34:20.896Z,102134.56
2019-04-19T01:36:48.468Z,102131.44
2019-04-19T01:39:28.866Z,102134.09
2019-04-19T01:41:58.073Z,102133.47
2019-04-19T01:44:43.557Z,102129.11
2019-04-19T01:47:25.908Z,102129.66
2019-04-19T01:49:49.207Z,102133.63
2019-04-19T01:52:35.106Z,102136.15
2019-04-19T01:54:49.031Z,102139.45
2019-04-19T01:57:08.022Z,102129.98
2019-04-19T01:59:40.665Z,102137.45
2019-04-19T02:02:11.689Z,102135.79
2019-04-19T02:04:37.688Z,102138.54
2019-04-19T02:07:12.565Z,102134.11
2019-04-19T02:09:51.754Z,102133.77
2019-04-19T02:12:22.522Z,102137.71
2019-04-19T02:14:46.335Z,102136.78
2019-04-19T02:17:10.311Z,102139.29
2019-04-19T02:19:38.533Z,102140.72
2019-04-19T02:22:15.214Z,102143.45
2019-04-19T02:24:44.161Z,102146.05
2019-04-19T02:27:10.047Z,102136.33
2019-04-19T02:29:38.424Z,102147.07
2019-04-19T02:32:29.886Z,102152.06
2019-04-19T02:37:34.546Z,102151.91
2019-04-19T02:45:04.596Z,102155.74
2019-04-19T02:50:01.978Z,102155.41
2019-04-19T02:55:12.487Z,102158.13
2019-04-19T03:00:33.791Z,102158.98
2019-04-19T03:05:22.432Z,102157.91
2019-04-19T03:07:28.142Z,102161.11
2019-04-19T03:09:57.953Z,102159.64
2019-04-19T03:12:41.493Z,102164.80
2019-04-19T03:17:44.559Z,102161.59
2019-04-19T03:20:10.889Z,102162.49
2019-04-19T03:22:43.566Z,102169.10
2019-04-19T03:25:15.218Z,102168.50
2019-04-19T03:27:40.880Z,102167.05
2019-04-19T03:30:16.814Z,102168.75
2019-04-19T03:33:07.169Z,102171.64
2019-04-19T03:35:11.395Z,102175.22
2019-04-19T03:37:53.045Z,102169.94
2019-04-19T03:42:54.211Z,102178.25
2019-04-19T03:45:28.976Z,102180.89
2019-04-19T03:48:07.726Z,102175.70
2019-04-19T03:51:08.952Z,102179.53
2019-04-19T03:54:00.633Z,102178.02
2019-04-19T03:56:34.532Z,102179.06
2019-04-19T03:58:42.061Z,102181.98
2019-04-19T04:01:37.807Z,102181.45
2019-04-19T04:04:24.086Z,102190.84
2019-04-19T04:07:15.467Z,102186.72
2019-04-19T04:13:09.274Z,102191.03
2019-04-19T04:16:11.535Z,102189.17
2019-04-19T04:18:51.713Z,102190.06
2019-04-19T04:21:27.174Z,102193.83
2019-04-19T04:24:19.009Z,102200.03
2019-04-19T04:26:53.089Z,102195.30
2019-04-19T04:29:19.260Z,102204.78
2019-04-19T04:31:53.353Z,102203.73
2019-04-19T04:34:25.652Z,102203.00
2019-04-19T04:37:17.020Z,102206.57
2019-04-19T04:39:49.402Z,102212.24
2019-04-19T04:42:47.411Z,102220.08
2019-04-19T04:46:16.892Z,102222.21
2019-04-19T04:48:53.060Z,102216.63
2019-04-19T04:54:16.556Z,102223.14
2019-04-19T04:59:37.677Z,102224.39
2019-04-19T05:02:42.692Z,102229.30
2019-04-19T05:05:13.127Z,102232.36
2019-04-19T05:08:06.622Z,102233.81
2019-04-19T05:10:49.347Z,102237.03
2019-04-19T05:13:39.659Z,102245.09
2019-04-19T05:19:17.763Z,102246.37
2019-04-19T05:22:05.851Z,102251.95
2019-04-19T05:25:05.486Z,102249.75
2019-04-19T05:27:52.293Z,102255.10
2019-04-19T05:29:59.891Z,102259.47
2019-04-19T05:32:57.976Z,102260.88
2019-04-19T05:35:53.261Z,102263.45
2019-04-19T05:44:23.383Z,102268.49
2019-04-19T05:52:24.198Z,102271.93
2019-04-19T05:54:36.864Z,102267.64
2019-04-19T05:57:59.305Z,102268.69
2019-04-19T06:00:51.674Z,102273.17
2019-04-19T06:03:14.599Z,102268.50
2019-04-19T06:06:26.302Z,102270.33
2019-04-19T06:08:29.425Z,102276.68
2019-04-19T06:10:58.466Z,102275.41
2019-04-19T06:13:25.542Z,102277.56
2019-04-19T06:16:18.103Z,102282.70
2019-04-19T06:18:55.880Z,102277.86
2019-04-19T06:21:32.788Z,102279.91
2019-04-19T06:24:05.789Z,102288.41
2019-04-19T06:31:58.134Z,102283.19
2019-04-19T06:36:58.634Z,102289.61
2019-04-19T06:39:20.499Z,102293.53
2019-04-19T06:41:55.744Z,102289.00
2019-04-19T06:44:43.730Z,102291.37
2019-04-19T06:47:04.038Z,102288.42
2019-04-19T06:49:40.667Z,102298.13
2019-04-19T06:52:18.005Z,102300.31
2019-04-19T06:55:03.594Z,102293.37
2019-04-19T06:58:00.410Z,102301.01
2019-04-19T07:01:13.603Z,102303.94
2019-04-19T07:03:47.834Z,102308.19
2019-04-19T07:06:35.051Z,102309.03
2019-04-19T07:12:16.657Z,102314.28
2019-04-19T07:14:58.861Z,102315.41
2019-04-19T07:17:31.887Z,102322.41
2019-04-19T07:22:53.701Z,102320.32
2019-04-19T07:26:10.019Z,102320.63
2019-04-19T07:28:38.426Z,102324.21
2019-04-19T07:31:46.875Z,102322.80
2019-04-19T07:34:34.820Z,102325.16
2019-04-19T07:37:03.730Z,102329.58
2019-04-19T07:39:37.790Z,102334.98
2019-04-19T07:42:40.742Z,102333.83
2019-04-19T07:47:54.823Z,102333.66
2019-04-19T07:51:02.203Z,102331.70
2019-04-19T07:56:21.992Z,102333.52
2019-04-19T07:59:27.915Z,102325.55
2019-04-19T08:09:49.739Z,102344.42
2019-04-19T08:12:23.008Z,102340.50
2019-04-19T08:15:06.504Z,102337.17
2019-04-19T08:30:00.131Z,102347.16
2019-04-19T08:32:24.443Z,102343.62
2019-04-19T08:35:15.178Z,102342.04
2019-04-19T08:38:06.964Z,102333.85
2019-04-19T08:40:50.313Z,102336.98
2019-04-19T08:43:41.658Z,102340.55
2019-04-19T08:46:11.225Z,102334.27
2019-04-19T08:49:02.426Z,102335.08
2019-04-19T08:54:57.795Z,102347.20
2019-04-19T08:57:01.494Z,102340.77
2019-04-19T09:00:04.923Z,102337.06
2019-04-19T09:02:45.252Z,102336.02
2019-04-19T09:08:35.843Z,102327.14
2019-04-19T09:11:04.039Z,102329.84
2019-04-19T09:13:52.225Z,102328.41
2019-04-19T09:16:38.139Z,102326.00
2019-04-19T09:19:45.765Z,102321.82
2019-04-19T09:22:19.418Z,102326.16
2019-04-19T09:24:57.116Z,102316.20
2019-04-19T09:27:58.572Z,102315.52
2019-04-19T09:31:06.059Z,102318.94
2019-04-19T09:33:40.863Z,102317.38
2019-04-19T09:36:11.202Z,102319.55
2019-04-19T09:38:59.782Z,102309.96
2019-04-19T09:41:21.611Z,102311.05
2019-04-19T09:43:52.137Z,102311.84
2019-04-19T09:46:27.597Z,102309.19
2019-04-19T09:49:36.768Z,102303.59
2019-04-19T09:52:31.560Z,102312.16
2019-04-19T09:54:58.900Z,102306.11
2019-04-19T10:00:11.982Z,102299.58
2019-04-19T10:02:56.537Z,102297.63
2019-04-19T10:05:23.944Z,102304.30
2019-04-19T10:08:11.620Z,102297.97
2019-04-19T10:10:41.110Z,102297.05
2019-04-19T10:18:23.404Z,102285.28
2019-04-19T10:21:33.656Z,102292.75
2019-04-19T10:24:05.420Z,102283.89
2019-04-19T10:26:50.464Z,102283.89
2019-04-19T10:32:13.168Z,102272.88
2019-04-19T10:34:42.751Z,102274.67
2019-04-19T10:37:31.558Z,102272.41
2019-04-19T10:44:00.210Z,102271.83
2019-04-19T10:49:52.914Z,102265.41
2019-04-19T10:52:35.886Z,102272.08
2019-04-19T10:55:44.453Z,102269.97
2019-04-19T11:03:46.948Z,102265.03
2019-04-19T11:09:45.831Z,102256.33
2019-04-19T11:17:59.353Z,102253.78
2019-04-19T11:20:38.081Z,102253.52
2019-04-19T11:23:19.714Z,102257.27
2019-04-19T11:31:49.907Z,102251.77
2019-04-19T11:36:53.826Z,102238.27
2019-04-19T11:39:23.154Z,102248.78
2019-04-19T11:41:52.347Z,102251.73
2019-04-19T11:44:39.874Z,102250.43
2019-04-19T11:47:27.521Z,102246.75
2019-04-19T11:55:46.615Z,102249.20
2019-04-19T12:01:43.929Z,102234.09
2019-04-19T12:04:12.353Z,102239.46
2019-04-19T12:06:40.756Z,102235.22
2019-04-19T12:09:50.211Z,102232.55
2019-04-19T12:12:39.118Z,102229.24
2019-04-19T12:15:49.221Z,102236.30
2019-04-19T12:18:18.473Z,102231.66
2019-04-19T12:20:55.421Z,102227.60
2019-04-19T12:23:25.702Z,102233.96
2019-04-19T12:28:29.974Z,102229.02
2019-04-19T12:31:19.110Z,102230.11
2019-04-19T12:34:09.570Z,102228.42
2019-04-19T12:39:25.227Z,102230.58
2019-04-19T12:41:53.588Z,102218.50
2019-04-19T12:44:22.815Z,102231.06
2019-04-19T12:47:11.336Z,102225.02
2019-04-19T12:49:52.098Z,102222.70
2019-04-19T12:52:31.155Z,102219.47
2019-04-19T12:55:18.373Z,102223.28
2019-04-19T12:58:06.105Z,102212.31
2019-04-19T13:01:14.410Z,102217.66
2019-04-19T13:07:11.007Z,102200.84
2019-04-19T13:09:41.190Z,102198.13
2019-04-19T13:12:10.834Z,102195.80
2019-04-19T13:14:41.673Z,102191.78
2019-04-19T13:17:30.519Z,102189.22
2019-04-19T13:20:08.606Z,102194.43
2019-04-19T13:22:50.517Z,102185.98
2019-04-19T13:25:59.615Z,102190.91
2019-04-19T13:31:34.817Z,102184.98
2019-04-19T13:34:23.256Z,102177.34
2019-04-19T13:40:26.219Z,102175.82
2019-04-19T13:43:15.113Z,102187.19
2019-04-19T13:48:37.117Z,102174.86
2019-04-19T13:54:00.580Z,102169.02
2019-04-19T13:56:30.894Z,102174.35
2019-04-19T13:59:01.461Z,102178.55
2019-04-19T14:01:50.293Z,102173.19
2019-04-19T14:07:07.561Z,102170.14
2019-04-19T14:09:55.209Z,102168.51
2019-04-19T14:14:57.558Z,102156.72
2019-04-19T14:20:00.685Z,102160.57
2019-04-19T14:22:49.770Z,102157.05
2019-04-19T14:25:59.306Z,102155.48
2019-04-19T14:28:49.938Z,102160.19
2019-04-19T14:31:37.775Z,102158.89
2019-04-19T14:34:06.816Z,102151.16
2019-04-19T14:36:36.318Z,102153.86
2019-04-19T14:39:44.935Z,102146.54
2019-04-19T14:42:14.748Z,102147.10
2019-04-19T14:44:43.259Z,102138.84
2019-04-19T14:47:32.846Z,102135.34
2019-04-19T14:50:23.165Z,102136.47
2019-04-19T14:53:12.313Z,102140.27
2019-04-19T14:55:41.705Z,102137.45
2019-04-19T15:03:39.346Z,102128.63
2019-04-19T15:08:47.643Z,102129.15
2019-04-19T15:11:17.973Z,102129.42
2019-04-19T15:13:47.229Z,102130.74
2019-04-19T15:18:51.675Z,102124.59
2019-04-19T15:21:40.591Z,102119.87
2019-04-19T15:24:10.742Z,102112.88
2019-04-19T15:26:40.753Z,102123.46
2019-04-19T15:29:11.211Z,102125.52
2019-04-19T15:32:00.046Z,102118.25
2019-04-19T15:34:29.615Z,102123.91
2019-04-19T15:39:53.913Z,102117.80
2019-04-19T15:42:24.745Z,102109.62
2019-04-19T15:45:14.209Z,102104.80
2019-04-19T15:47:44.497Z,102102.94
2019-04-19T15:51:07.398Z,102112.84
2019-04-19T15:53:24.353Z,102113.58
2019-04-19T15:56:14.224Z,102108.92
2019-04-19T15:59:25.029Z,102105.75
2019-04-19T16:02:12.098Z,102102.77
2019-04-19T16:05:19.946Z,102105.97
2019-04-19T16:08:08.220Z,102106.03
2019-04-19T16:11:16.444Z,102104.12
2019-04-19T16:14:04.165Z,102105.74
2019-04-19T16:16:33.236Z,102105.20
2019-04-19T16:19:02.705Z,102103.28
2019-04-19T16:21:55.653Z,102103.52
2019-04-19T16:24:21.014Z,102103.27
2019-04-19T16:26:51.021Z,102106.17
2019-04-19T16:29:29.411Z,102108.45
2019-04-19T16:32:09.867Z,102107.22
2019-04-19T16:34:57.524Z,102106.31
2019-04-19T16:37:45.170Z,102108.20
2019-04-19T16:40:34.245Z,102112.44
2019-04-19T16:43:03.542Z,102112.79
2019-04-19T16:46:03.242Z,102109.84
2019-04-19T16:48:42.424Z,102110.75
2019-04-19T16:51:12.572Z,102109.66
2019-04-19T16:53:42.316Z,102106.35
2019-04-19T16:56:12.221Z,102100.92
2019-04-19T16:59:01.410Z,102107.09
2019-04-19T17:04:36.919Z,102104.77
2019-04-19T17:07:24.813Z,102105.13
2019-04-19T17:12:51.603Z,102111.85
2019-04-19T17:15:39.601Z,102103.95
2019-04-19T17:18:27.124Z,102109.59
2019-04-19T17:21:15.612Z,102105.92
2019-04-19T17:24:05.024Z,102106.86
2019-04-19T17:26:35.182Z,102104.15
2019-04-19T17:29:24.695Z,102111.78
2019-04-19T17:32:14.177Z,102111.67
2019-04-19T17:34:44.325Z,102112.45
2019-04-19T17:37:14.125Z,102109.13
2019-04-19T17:39:44.560Z,102111.10
2019-04-19T17:42:14.633Z,102118.39
2019-04-19T17:47:39.678Z,102115.16
2019-04-19T17:50:48.088Z,102120.88
2019-04-19T17:53:40.800Z,102119.85
2019-04-19T17:56:06.160Z,102119.84
2019-04-19T17:58:54.131Z,102117.87
2019-04-19T18:01:24.293Z,102124.45
2019-04-19T18:06:29.963Z,102128.34
2019-04-19T18:09:19.972Z,102129.28
2019-04-19T18:11:49.279Z,102132.88
2019-04-19T18:14:18.250Z,102138.61
2019-04-19T18:16:46.657Z,102142.33
2019-04-19T18:19:22.246Z,102144.34
2019-04-19T18:21:45.938Z,102146.30
2019-04-19T18:24:39.776Z,102144.38
2019-04-19T18:27:09.286Z,102141.18
2019-04-19T18:29:35.751Z,102143.75
2019-04-19T18:34:54.187Z,102147.23
2019-04-19T18:37:44.403Z,102154.20
2019-04-19T18:40:31.431Z,102158.50
2019-04-19T18:43:27.818Z,102162.67
2019-04-19T18:45:50.010Z,102171.64
2019-04-19T18:48:19.831Z,102163.69
2019-04-19T18:50:52.219Z,102174.47
2019-04-19T18:53:47.092Z,102171.45
2019-04-19T18:56:16.222Z,102176.95
2019-04-19T18:58:40.621Z,102173.03
2019-04-19T19:01:33.929Z,102183.55
2019-04-19T19:04:24.310Z,102175.48
2019-04-19T19:06:48.854Z,102176.09
2019-04-19T19:12:14.942Z,102173.61
2019-04-19T19:15:03.015Z,102172.87
2019-04-19T19:17:54.854Z,102179.18
2019-04-19T19:21:03.169Z,102182.37
2019-04-19T19:26:53.437Z,102186.18
2019-04-19T19:29:28.164Z,102192.87
2019-04-19T19:32:36.554Z,102195.63
2019-04-19T19:35:52.245Z,102200.06
2019-04-19T19:38:38.167Z,102198.24
2019-04-19T19:42:31.411Z,102200.08
2019-04-19T19:44:31.219Z,102199.33
2019-04-19T19:47:33.459Z,102199.27
2019-04-19T19:49:52.638Z,102200.52
2019-04-19T19:52:26.133Z,102197.12
2019-04-19T19:55:11.567Z,102198.69
2019-04-19T19:57:39.617Z,102202.53
2019-04-19T20:00:20.716Z,102201.91
2019-04-19T20:03:13.531Z,102203.99
2019-04-19T20:05:36.464Z,102203.20
2019-04-19T20:08:03.797Z,102203.11
2019-04-19T20:10:39.890Z,102203.48
2019-04-19T20:13:08.779Z,102201.29
2019-04-19T20:15:52.828Z,102201.60
2019-04-19T20:18:30.948Z,102211.62
2019-04-19T20:20:54.397Z,102207.49
2019-04-19T20:23:29.135Z,102208.69
2019-04-19T20:26:04.282Z,102207.93
2019-04-19T20:28:43.112Z,102211.19
2019-04-19T20:31:15.915Z,102217.64
2019-04-19T20:34:02.636Z,102237.95
2019-04-19T20:36:37.425Z,102229.27
2019-04-19T20:39:03.100Z,102235.32
2019-04-19T20:41:54.427Z,102237.06
2019-04-19T20:44:40.692Z,102238.60
2019-04-19T20:46:52.464Z,102235.62
2019-04-19T20:49:21.586Z,102238.00
2019-04-19T20:52:41.558Z,102238.77
2019-04-19T20:55:22.948Z,102234.95
2019-04-19T21:00:44.092Z,102237.05
2019-04-19T21:03:34.972Z,102243.32
2019-04-19T21:06:28.687Z,102241.20
2019-04-19T21:08:52.874Z,102244.05
2019-04-19T21:11:45.831Z,102244.81
2019-04-19T21:14:11.282Z,102242.91
2019-04-19T21:16:48.120Z,102251.69
2019-04-19T21:19:51.753Z,102252.42
2019-04-19T21:22:40.478Z,102256.91
2019-04-19T21:25:19.053Z,102256.42
2019-04-19T21:27:47.090Z,102262.42
2019-04-19T21:30:29.257Z,102266.08
2019-04-19T21:33:20.139Z,102258.25
2019-04-19T21:36:04.853Z,102265.44
2019-04-19T21:38:30.245Z,102263.11
2019-04-19T21:41:25.545Z,102265.48
2019-04-19T21:43:50.000Z,102270.80
2019-04-19T21:46:39.829Z,102261.81
2019-04-19T21:49:12.906Z,102269.22
2019-04-19T21:51:40.684Z,102270.09
2019-04-19T21:54:10.408Z,102274.21
2019-04-19T21:56:44.443Z,102277.05
2019-04-19T21:59:09.466Z,102274.09
2019-04-19T22:02:29.873Z,102275.42
2019-04-19T22:04:53.504Z,102270.43
2019-04-19T22:07:43.855Z,102280.92
2019-04-19T22:10:33.473Z,102282.92
2019-04-19T22:13:16.695Z,102277.60
2019-04-19T22:16:05.848Z,102277.96
2019-04-19T22:18:56.238Z,102280.39
2019-04-19T22:21:30.204Z,102281.41
2019-04-19T22:23:56.402Z,102286.80
2019-04-19T22:26:48.214Z,102281.13
2019-04-19T22:29:15.472Z,102280.50
2019-04-19T22:32:09.794Z,102275.48
2019-04-19T22:34:34.683Z,102282.64
2019-04-19T22:37:29.968Z,102278.59
2019-04-19T22:40:12.747Z,102281.06
2019-04-19T22:43:04.848Z,102277.08
2019-04-19T22:45:30.696Z,102280.58
2019-04-19T22:48:20.191Z,102280.52
2019-04-19T22:53:54.974Z,102274.83
2019-04-19T22:56:32.973Z,102285.16
2019-04-19T22:58:53.678Z,102277.23
2019-04-19T23:01:44.407Z,102274.70
2019-04-19T23:04:32.987Z,102280.45
2019-04-19T23:07:05.431Z,102278.84
2019-04-19T23:09:52.668Z,102275.09
2019-04-19T23:20:45.390Z,102271.03
2019-04-19T23:23:21.731Z,102275.02
2019-04-19T23:26:17.101Z,102272.90
2019-04-19T23:28:53.156Z,102272.66
2019-04-19T23:34:12.282Z,102266.43
2019-04-19T23:36:41.672Z,102271.68
2019-04-19T23:39:13.988Z,102265.96
2019-04-19T23:41:40.828Z,102269.83
2019-04-19T23:44:29.101Z,102273.50
2019-04-19T23:47:18.166Z,102270.78
2019-04-19T23:50:06.266Z,102273.34
2019-04-19T23:52:57.430Z,102264.99
2019-04-19T23:58:35.027Z,102265.97
